sensor_id;sensor_type;location;lat;lon;timestamp;pressure;altitude;pressure_sealevel;temperature;humidity
76627;BME280;65519;53.230;10.390;2022-12-24T00:00:21;100036.66;;;5.73;87.49
76627;BME280;65519;53.230;10.390;2022-12-24T00:02:48;100033.69;;;5.74;87.15
76627;BME280;65519;53.230;10.390;2022-12-24T00:05:13;100033.69;;;5.74;87.54
76627;BME280;65519;53.230;10.390;2022-12-24T00:07:39;100040.72;;;5.75;87.42
76627;BME280;65519;53.230;10.390;2022-12-24T00:10:05;100050.69;;;5.70;87.53
76627;BME280;65519;53.230;10.390;2022-12-24T00:12:31;100056.97;;;5.75;87.01
76627;BME280;65519;53.230;10.390;2022-12-24T00:14:56;100056.97;;;5.75;87.06
76627;BME280;65519;53.230;10.390;2022-12-24T00:17:21;100048.56;;;5.72;87.73
76627;BME280;65519;53.230;10.390;2022-12-24T00:19:47;100058.03;;;5.74;87.47
76627;BME280;65519;53.230;10.390;2022-12-24T00:22:12;100065.59;;;5.72;87.34
76627;BME280;65519;53.230;10.390;2022-12-24T00:24:38;100061.41;;;5.86;87.15
76627;BME280;65519;53.230;10.390;2022-12-24T00:27:03;100061.06;;;5.78;87.25
76627;BME280;65519;53.230;10.390;2022-12-24T00:29:30;100052.91;;;5.73;87.20
76627;BME280;65519;53.230;10.390;2022-12-24T00:31:55;100055.31;;;5.74;87.13
76627;BME280;65519;53.230;10.390;2022-12-24T00:34:22;100058.47;;;5.66;87.49
76627;BME280;65519;53.230;10.390;2022-12-24T00:36:48;100058.97;;;5.63;87.35
76627;BME280;65519;53.230;10.390;2022-12-24T00:39:13;100056.09;;;5.70;87.60
76627;BME280;65519;53.230;10.390;2022-12-24T00:41:38;100069.91;;;5.73;86.83
76627;BME280;65519;53.230;10.390;2022-12-24T00:44:05;100062.91;;;5.72;87.12
76627;BME280;65519;53.230;10.390;2022-12-24T00:46:34;100066.66;;;5.71;86.97
76627;BME280;65519;53.230;10.390;2022-12-24T00:48:59;100061.56;;;5.75;86.98
76627;BME280;65519;53.230;10.390;2022-12-24T00:51:25;100072.91;;;5.72;87.78
76627;BME280;65519;53.230;10.390;2022-12-24T00:53:51;100070.31;;;5.82;86.82
76627;BME280;65519;53.230;10.390;2022-12-24T00:56:17;100068.84;;;5.74;86.87
76627;BME280;65519;53.230;10.390;2022-12-24T00:58:42;100066.34;;;5.68;87.23
76627;BME280;65519;53.230;10.390;2022-12-24T01:01:08;100070.59;;;5.64;87.56
76627;BME280;65519;53.230;10.390;2022-12-24T01:03:33;100072.25;;;5.65;86.86
76627;BME280;65519;53.230;10.390;2022-12-24T01:08:27;100080.59;;;5.63;87.15
76627;BME280;65519;53.230;10.390;2022-12-24T01:10:52;100090.94;;;5.66;87.28
76627;BME280;65519;53.230;10.390;2022-12-24T01:13:17;100090.69;;;5.68;87.56
76627;BME280;65519;53.230;10.390;2022-12-24T01:15:43;100096.91;;;5.68;87.59
76627;BME280;65519;53.230;10.390;2022-12-24T01:18:08;100089.81;;;5.62;87.22
76627;BME280;65519;53.230;10.390;2022-12-24T01:20:34;100086.34;;;5.67;86.91
76627;BME280;65519;53.230;10.390;2022-12-24T01:22:59;100090.94;;;5.66;86.95
76627;BME280;65519;53.230;10.390;2022-12-24T01:25:24;100094.13;;;5.63;86.80
76627;BME280;65519;53.230;10.390;2022-12-24T01:27:50;100085.88;;;5.53;87.19
76627;BME280;65519;53.230;10.390;2022-12-24T01:30:15;100093.00;;;5.59;87.88
76627;BME280;65519;53.230;10.390;2022-12-24T01:32:40;100091.03;;;5.55;87.18
76627;BME280;65519;53.230;10.390;2022-12-24T01:35:06;100090.09;;;5.66;86.93
76627;BME280;65519;53.230;10.390;2022-12-24T01:37:32;100098.16;;;5.61;87.61
76627;BME280;65519;53.230;10.390;2022-12-24T01:39:57;100094.41;;;5.62;87.51
76627;BME280;65519;53.230;10.390;2022-12-24T01:42:46;100105.72;;;5.59;87.17
76627;BME280;65519;53.230;10.390;2022-12-24T01:47:59;100105.88;;;5.52;87.52
76627;BME280;65519;53.230;10.390;2022-12-24T01:50:24;100103.94;;;5.47;87.41
76627;BME280;65519;53.230;10.390;2022-12-24T01:52:50;100109.91;;;5.49;87.55
76627;BME280;65519;53.230;10.390;2022-12-24T01:55:16;100118.31;;;5.53;87.42
76627;BME280;65519;53.230;10.390;2022-12-24T01:57:52;100115.31;;;5.49;87.77
76627;BME280;65519;53.230;10.390;2022-12-24T02:00:19;100121.09;;;5.58;87.47
76627;BME280;65519;53.230;10.390;2022-12-24T02:02:48;100123.31;;;5.61;87.16
76627;BME280;65519;53.230;10.390;2022-12-24T02:05:19;100123.38;;;5.66;86.84
76627;BME280;65519;53.230;10.390;2022-12-24T02:07:47;100117.63;;;5.63;87.03
76627;BME280;65519;53.230;10.390;2022-12-24T02:10:14;100136.50;;;5.58;88.11
76627;BME280;65519;53.230;10.390;2022-12-24T02:12:41;100138.31;;;5.52;87.71
76627;BME280;65519;53.230;10.390;2022-12-24T02:15:10;100131.44;;;5.61;87.23
76627;BME280;65519;53.230;10.390;2022-12-24T02:17:49;100140.28;;;5.57;87.45
76627;BME280;65519;53.230;10.390;2022-12-24T02:37:02;100145.06;;;5.49;87.09
76627;BME280;65519;53.230;10.390;2022-12-24T02:39:43;100146.19;;;5.54;87.18
76627;BME280;65519;53.230;10.390;2022-12-24T02:42:12;100148.16;;;5.58;86.98
76627;BME280;65519;53.230;10.390;2022-12-24T02:44:44;100154.97;;;5.44;86.96
76627;BME280;65519;53.230;10.390;2022-12-24T02:47:13;100155.22;;;5.42;87.21
76627;BME280;65519;53.230;10.390;2022-12-24T02:49:43;100160.22;;;5.50;87.04
76627;BME280;65519;53.230;10.390;2022-12-24T02:52:35;100163.75;;;5.51;87.19
76627;BME280;65519;53.230;10.390;2022-12-24T03:00:45;100163.56;;;5.41;87.50
76627;BME280;65519;53.230;10.390;2022-12-24T03:06:14;100169.19;;;5.56;87.09
76627;BME280;65519;53.230;10.390;2022-12-24T03:11:17;100168.06;;;5.52;87.08
76627;BME280;65519;53.230;10.390;2022-12-24T03:13:43;100167.56;;;5.55;87.28
76627;BME280;65519;53.230;10.390;2022-12-24T03:16:22;100162.59;;;5.47;87.07
76627;BME280;65519;53.230;10.390;2022-12-24T03:18:49;100168.97;;;5.58;86.91
76627;BME280;65519;53.230;10.390;2022-12-24T03:21:19;100172.34;;;5.48;87.21
76627;BME280;65519;53.230;10.390;2022-12-24T03:23:46;100174.56;;;5.51;87.37
76627;BME280;65519;53.230;10.390;2022-12-24T03:26:13;100172.91;;;5.50;87.43
76627;BME280;65519;53.230;10.390;2022-12-24T03:28:40;100181.41;;;5.42;87.62
76627;BME280;65519;53.230;10.390;2022-12-24T03:31:07;100184.94;;;5.42;87.43
76627;BME280;65519;53.230;10.390;2022-12-24T03:33:33;100189.69;;;5.52;87.14
76627;BME280;65519;53.230;10.390;2022-12-24T03:35:59;100184.22;;;5.47;87.07
76627;BME280;65519;53.230;10.390;2022-12-24T03:38:24;100195.03;;;5.47;87.38
76627;BME280;65519;53.230;10.390;2022-12-24T03:40:50;100202.06;;;5.48;86.82
76627;BME280;65519;53.230;10.390;2022-12-24T03:43:15;100195.41;;;5.56;86.72
76627;BME280;65519;53.230;10.390;2022-12-24T03:45:41;100202.72;;;5.55;87.04
76627;BME280;65519;53.230;10.390;2022-12-24T03:48:06;100206.00;;;5.57;87.00
76627;BME280;65519;53.230;10.390;2022-12-24T03:50:31;100206.00;;;5.57;86.75
76627;BME280;65519;53.230;10.390;2022-12-24T03:52:57;100200.44;;;5.47;86.94
76627;BME280;65519;53.230;10.390;2022-12-24T03:55:22;100202.50;;;5.40;87.29
76627;BME280;65519;53.230;10.390;2022-12-24T03:57:48;100205.34;;;5.50;87.15
76627;BME280;65519;53.230;10.390;2022-12-24T04:00:14;100211.00;;;5.48;86.62
76627;BME280;65519;53.230;10.390;2022-12-24T04:02:39;100219.00;;;5.43;87.01
76627;BME280;65519;53.230;10.390;2022-12-24T04:05:06;100218.72;;;5.40;87.39
76627;BME280;65519;53.230;10.390;2022-12-24T04:07:32;100224.59;;;5.54;86.60
76627;BME280;65519;53.230;10.390;2022-12-24T04:09:57;100223.69;;;5.48;87.08
76627;BME280;65519;53.230;10.390;2022-12-24T04:12:23;100223.59;;;5.43;87.42
76627;BME280;65519;53.230;10.390;2022-12-24T04:14:48;100234.66;;;5.41;87.59
76627;BME280;65519;53.230;10.390;2022-12-24T04:17:14;100229.00;;;5.43;87.52
76627;BME280;65519;53.230;10.390;2022-12-24T04:19:40;100232.53;;;5.43;87.53
76627;BME280;65519;53.230;10.390;2022-12-24T04:22:05;100222.53;;;5.44;87.19
76627;BME280;65519;53.230;10.390;2022-12-24T04:24:30;100230.41;;;5.45;86.94
76627;BME280;65519;53.230;10.390;2022-12-24T04:26:56;100230.56;;;5.56;87.12
76627;BME280;65519;53.230;10.390;2022-12-24T04:29:21;100228.28;;;5.47;87.06
76627;BME280;65519;53.230;10.390;2022-12-24T04:31:46;100218.53;;;5.46;87.14
76627;BME280;65519;53.230;10.390;2022-12-24T04:34:12;100225.81;;;5.46;87.30
76627;BME280;65519;53.230;10.390;2022-12-24T04:36:37;100232.06;;;5.46;87.46
76627;BME280;65519;53.230;10.390;2022-12-24T04:39:02;100236.16;;;5.49;86.67
76627;BME280;65519;53.230;10.390;2022-12-24T04:41:28;100239.59;;;5.44;86.85
76627;BME280;65519;53.230;10.390;2022-12-24T04:43:54;100234.50;;;5.48;86.90
76627;BME280;65519;53.230;10.390;2022-12-24T04:46:27;100235.72;;;5.57;86.67
76627;BME280;65519;53.230;10.390;2022-12-24T04:48:56;100230.41;;;5.45;87.34
76627;BME280;65519;53.230;10.390;2022-12-24T04:51:23;100227.66;;;5.40;87.04
76627;BME280;65519;53.230;10.390;2022-12-24T04:53:49;100233.34;;;5.44;86.85
76627;BME280;65519;53.230;10.390;2022-12-24T04:56:16;100231.13;;;5.41;87.23
76627;BME280;65519;53.230;10.390;2022-12-24T04:58:42;100233.78;;;5.36;87.09
76627;BME280;65519;53.230;10.390;2022-12-24T05:01:11;100238.94;;;5.37;87.41
76627;BME280;65519;53.230;10.390;2022-12-24T05:03:37;100246.72;;;5.34;87.36
76627;BME280;65519;53.230;10.390;2022-12-24T05:06:08;100240.50;;;5.50;86.70
76627;BME280;65519;53.230;10.390;2022-12-24T05:08:34;100253.28;;;5.38;87.03
76627;BME280;65519;53.230;10.390;2022-12-24T05:11:00;100248.09;;;5.36;87.11
76627;BME280;65519;53.230;10.390;2022-12-24T05:13:27;100245.31;;;5.31;87.87
76627;BME280;65519;53.230;10.390;2022-12-24T05:15:52;100246.13;;;5.32;87.81
76627;BME280;65519;53.230;10.390;2022-12-24T05:18:18;100243.44;;;5.32;87.50
76627;BME280;65519;53.230;10.390;2022-12-24T05:20:44;100247.13;;;5.26;87.74
76627;BME280;65519;53.230;10.390;2022-12-24T05:23:16;100246.22;;;5.37;87.78
76627;BME280;65519;53.230;10.390;2022-12-24T05:26:00;100245.31;;;5.31;87.71
76627;BME280;65519;53.230;10.390;2022-12-24T05:28:44;100250.56;;;5.38;87.47
76627;BME280;65519;53.230;10.390;2022-12-24T05:31:10;100251.88;;;5.35;87.58
76627;BME280;65519;53.230;10.390;2022-12-24T05:33:35;100254.47;;;5.30;87.86
76627;BME280;65519;53.230;10.390;2022-12-24T05:36:01;100255.16;;;5.37;87.19
76627;BME280;65519;53.230;10.390;2022-12-24T05:38:26;100264.66;;;5.40;87.26
76627;BME280;65519;53.230;10.390;2022-12-24T05:40:51;100267.59;;;5.38;87.75
76627;BME280;65519;53.230;10.390;2022-12-24T05:43:17;100265.16;;;5.37;87.16
76627;BME280;65519;53.230;10.390;2022-12-24T05:45:42;100268.19;;;5.40;87.00
76627;BME280;65519;53.230;10.390;2022-12-24T05:48:07;100276.94;;;5.47;86.89
76627;BME280;65519;53.230;10.390;2022-12-24T05:50:34;100273.31;;;5.42;87.08
76627;BME280;65519;53.230;10.390;2022-12-24T05:53:00;100277.59;;;5.38;87.44
76627;BME280;65519;53.230;10.390;2022-12-24T05:55:25;100288.88;;;5.35;87.46
76627;BME280;65519;53.230;10.390;2022-12-24T05:57:50;100285.78;;;5.43;87.24
76627;BME280;65519;53.230;10.390;2022-12-24T06:00:16;100298.00;;;5.45;87.18
76627;BME280;65519;53.230;10.390;2022-12-24T06:02:41;100304.47;;;5.44;87.62
76627;BME280;65519;53.230;10.390;2022-12-24T06:05:07;100300.44;;;5.47;87.01
76627;BME280;65519;53.230;10.390;2022-12-24T06:07:33;100303.16;;;5.47;87.04
76627;BME280;65519;53.230;10.390;2022-12-24T06:09:58;100300.69;;;5.45;87.46
76627;BME280;65519;53.230;10.390;2022-12-24T06:12:24;100309.53;;;5.41;87.44
76627;BME280;65519;53.230;10.390;2022-12-24T06:14:49;100309.69;;;5.34;87.37
76627;BME280;65519;53.230;10.390;2022-12-24T06:17:14;100300.88;;;5.39;87.64
76627;BME280;65519;53.230;10.390;2022-12-24T06:19:40;100296.59;;;5.43;87.16
76627;BME280;65519;53.230;10.390;2022-12-24T06:22:05;100309.22;;;5.37;87.05
76627;BME280;65519;53.230;10.390;2022-12-24T06:24:30;100309.09;;;5.32;86.98
76627;BME280;65519;53.230;10.390;2022-12-24T06:26:56;100301.59;;;5.34;87.37
76627;BME280;65519;53.230;10.390;2022-12-24T06:29:21;100310.44;;;5.30;87.72
76627;BME280;65519;53.230;10.390;2022-12-24T06:31:46;100312.88;;;5.31;87.60
76627;BME280;65519;53.230;10.390;2022-12-24T06:34:12;100315.69;;;5.36;87.39
76627;BME280;65519;53.230;10.390;2022-12-24T06:36:37;100305.50;;;5.27;87.90
76627;BME280;65519;53.230;10.390;2022-12-24T06:39:02;100320.66;;;5.28;87.83
76627;BME280;65519;53.230;10.390;2022-12-24T06:41:28;100325.00;;;5.29;87.64
76627;BME280;65519;53.230;10.390;2022-12-24T06:43:53;100329.44;;;5.35;87.51
76627;BME280;65519;53.230;10.390;2022-12-24T06:46:19;100320.75;;;5.33;87.59
76627;BME280;65519;53.230;10.390;2022-12-24T06:48:46;100322.97;;;5.36;87.74
76627;BME280;65519;53.230;10.390;2022-12-24T06:51:12;100330.97;;;5.31;87.75
76627;BME280;65519;53.230;10.390;2022-12-24T06:53:38;100333.19;;;5.34;87.41
76627;BME280;65519;53.230;10.390;2022-12-24T06:56:09;100316.97;;;5.34;86.92
76627;BME280;65519;53.230;10.390;2022-12-24T06:58:35;100326.84;;;5.40;87.12
76627;BME280;65519;53.230;10.390;2022-12-24T07:01:05;100330.34;;;5.40;86.70
76627;BME280;65519;53.230;10.390;2022-12-24T07:03:32;100332.88;;;5.47;86.07
76627;BME280;65519;53.230;10.390;2022-12-24T07:05:58;100329.59;;;5.45;86.62
76627;BME280;65519;53.230;10.390;2022-12-24T07:08:23;100339.66;;;5.33;87.16
76627;BME280;65519;53.230;10.390;2022-12-24T07:10:49;100339.19;;;5.36;87.22
76627;BME280;65519;53.230;10.390;2022-12-24T07:13:16;100341.31;;;5.34;87.09
76627;BME280;65519;53.230;10.390;2022-12-24T07:15:41;100345.06;;;5.33;87.68
76627;BME280;65519;53.230;10.390;2022-12-24T07:18:07;100341.31;;;5.34;87.50
76627;BME280;65519;53.230;10.390;2022-12-24T07:20:32;100352.59;;;5.31;87.26
76627;BME280;65519;53.230;10.390;2022-12-24T07:22:57;100350.16;;;5.29;87.56
76627;BME280;65519;53.230;10.390;2022-12-24T07:25:23;100355.06;;;5.32;87.37
76627;BME280;65519;53.230;10.390;2022-12-24T07:27:49;100365.63;;;5.34;87.15
76627;BME280;65519;53.230;10.390;2022-12-24T07:30:14;100369.16;;;5.34;87.17
76627;BME280;65519;53.230;10.390;2022-12-24T07:32:40;100373.38;;;5.30;87.47
76627;BME280;65519;53.230;10.390;2022-12-24T07:35:05;100378.91;;;5.35;87.49
76627;BME280;65519;53.230;10.390;2022-12-24T07:37:31;100377.25;;;5.34;87.42
76627;BME280;65519;53.230;10.390;2022-12-24T07:39:56;100371.84;;;5.34;87.01
76627;BME280;65519;53.230;10.390;2022-12-24T07:42:22;100378.56;;;5.32;86.99
76627;BME280;65519;53.230;10.390;2022-12-24T07:44:47;100377.38;;;5.39;86.74
76627;BME280;65519;53.230;10.390;2022-12-24T07:47:13;100379.00;;;5.40;86.70
76627;BME280;65519;53.230;10.390;2022-12-24T07:49:38;100384.94;;;5.26;87.48
76627;BME280;65519;53.230;10.390;2022-12-24T07:52:03;100387.41;;;5.27;88.21
76627;BME280;65519;53.230;10.390;2022-12-24T07:54:29;100379.53;;;5.26;87.31
76627;BME280;65519;53.230;10.390;2022-12-24T07:56:54;100388.47;;;5.26;87.95
76627;BME280;65519;53.230;10.390;2022-12-24T07:59:20;100389.94;;;5.34;87.22
76627;BME280;65519;53.230;10.390;2022-12-24T08:01:45;100391.41;;;5.25;87.65
76627;BME280;65519;53.230;10.390;2022-12-24T08:04:11;100402.88;;;5.32;87.32
76627;BME280;65519;53.230;10.390;2022-12-24T08:06:36;100401.44;;;5.41;87.21
76627;BME280;65519;53.230;10.390;2022-12-24T08:09:02;100394.41;;;5.40;86.58
76627;BME280;65519;53.230;10.390;2022-12-24T08:11:28;100405.59;;;5.32;87.39
76627;BME280;65519;53.230;10.390;2022-12-24T08:13:53;100404.44;;;5.28;87.62
76627;BME280;65519;53.230;10.390;2022-12-24T08:16:19;100425.38;;;5.21;87.87
76627;BME280;65519;53.230;10.390;2022-12-24T08:18:44;100423.16;;;5.18;88.72
76627;BME280;65519;53.230;10.390;2022-12-24T08:21:09;100421.16;;;5.13;88.42
76627;BME280;65519;53.230;10.390;2022-12-24T08:23:35;100433.81;;;5.24;88.39
76627;BME280;65519;53.230;10.390;2022-12-24T08:26:01;100433.75;;;5.19;88.78
76627;BME280;65519;53.230;10.390;2022-12-24T08:28:28;100424.41;;;5.27;88.54
76627;BME280;65519;53.230;10.390;2022-12-24T08:30:53;100436.16;;;5.21;88.39
76627;BME280;65519;53.230;10.390;2022-12-24T08:33:19;100435.44;;;5.37;87.69
76627;BME280;65519;53.230;10.390;2022-12-24T08:35:53;100440.63;;;5.27;87.49
76627;BME280;65519;53.230;10.390;2022-12-24T08:38:19;100442.91;;;5.18;88.63
76627;BME280;65519;53.230;10.390;2022-12-24T08:40:45;100446.06;;;5.15;88.91
76627;BME280;65519;53.230;10.390;2022-12-24T08:43:17;100451.84;;;5.19;89.40
76627;BME280;65519;53.230;10.390;2022-12-24T08:45:42;100459.66;;;5.20;89.05
76627;BME280;65519;53.230;10.390;2022-12-24T08:48:08;100465.44;;;5.24;89.49
76627;BME280;65519;53.230;10.390;2022-12-24T08:50:34;100461.19;;;5.28;88.84
76627;BME280;65519;53.230;10.390;2022-12-24T08:53:02;100463.50;;;5.36;88.71
76627;BME280;65519;53.230;10.390;2022-12-24T08:55:27;100471.16;;;5.39;88.19
76627;BME280;65519;53.230;10.390;2022-12-24T08:57:52;100472.44;;;5.36;88.49
76627;BME280;65519;53.230;10.390;2022-12-24T09:00:18;100487.63;;;5.26;88.51
76627;BME280;65519;53.230;10.390;2022-12-24T09:02:43;100489.88;;;5.29;88.30
76627;BME280;65519;53.230;10.390;2022-12-24T09:05:09;100487.25;;;5.34;88.32
76627;BME280;65519;53.230;10.390;2022-12-24T09:07:35;100484.16;;;5.42;87.65
76627;BME280;65519;53.230;10.390;2022-12-24T09:10:01;100498.28;;;5.32;87.53
76627;BME280;65519;53.230;10.390;2022-12-24T09:12:26;100495.28;;;5.29;88.22
76627;BME280;65519;53.230;10.390;2022-12-24T09:14:52;100505.47;;;5.38;88.14
76627;BME280;65519;53.230;10.390;2022-12-24T09:17:19;100506.84;;;5.41;87.87
76627;BME280;65519;53.230;10.390;2022-12-24T09:19:44;100504.25;;;5.46;87.85
76627;BME280;65519;53.230;10.390;2022-12-24T09:22:10;100519.41;;;5.47;88.01
76627;BME280;65519;53.230;10.390;2022-12-24T09:24:36;100515.19;;;5.51;87.98
76627;BME280;65519;53.230;10.390;2022-12-24T09:27:01;100515.78;;;5.41;87.94
76627;BME280;65519;53.230;10.390;2022-12-24T09:29:28;100520.84;;;5.49;87.89
76627;BME280;65519;53.230;10.390;2022-12-24T09:31:54;100523.84;;;5.53;87.74
76627;BME280;65519;53.230;10.390;2022-12-24T09:34:20;100528.59;;;5.46;88.58
76627;BME280;65519;53.230;10.390;2022-12-24T09:36:45;100535.88;;;5.45;88.18
76627;BME280;65519;53.230;10.390;2022-12-24T09:39:11;100538.81;;;5.44;88.21
76627;BME280;65519;53.230;10.390;2022-12-24T09:41:50;100537.16;;;5.43;88.09
76627;BME280;65519;53.230;10.390;2022-12-24T09:44:54;100538.13;;;5.48;88.71
76627;BME280;65519;53.230;10.390;2022-12-24T09:47:30;100532.72;;;5.37;88.39
76627;BME280;65519;53.230;10.390;2022-12-24T09:50:01;100545.75;;;5.52;88.38
76627;BME280;65519;53.230;10.390;2022-12-24T09:52:40;100542.78;;;5.53;87.92
76627;BME280;65519;53.230;10.390;2022-12-24T09:55:30;100543.38;;;5.55;88.27
76627;BME280;65519;53.230;10.390;2022-12-24T09:57:57;100548.31;;;5.58;88.75
76627;BME280;65519;53.230;10.390;2022-12-24T10:02:49;100547.38;;;5.53;88.66
76627;BME280;65519;53.230;10.390;2022-12-24T10:05:17;100558.44;;;5.51;88.52
76627;BME280;65519;53.230;10.390;2022-12-24T10:27:11;100595.22;;;5.52;89.40
76627;BME280;65519;53.230;10.390;2022-12-24T10:29:42;100592.50;;;5.52;89.51
76627;BME280;65519;53.230;10.390;2022-12-24T10:32:24;100594.97;;;5.54;89.24
76627;BME280;65519;53.230;10.390;2022-12-24T10:37:38;100599.22;;;5.61;89.34
76627;BME280;65519;53.230;10.390;2022-12-24T10:40:05;100600.28;;;5.60;89.16
76627;BME280;65519;53.230;10.390;2022-12-24T10:42:40;100598.25;;;5.67;89.55
76627;BME280;65519;53.230;10.390;2022-12-24T10:45:15;100609.03;;;5.79;89.41
76627;BME280;65519;53.230;10.390;2022-12-24T10:47:43;100607.38;;;5.78;89.48
76627;BME280;65519;53.230;10.390;2022-12-24T10:50:16;100599.41;;;5.83;89.57
76627;BME280;65519;53.230;10.390;2022-12-24T10:52:44;100606.91;;;5.93;89.40
76627;BME280;65519;53.230;10.390;2022-12-24T10:57:39;100601.78;;;6.08;89.40
76627;BME280;65519;53.230;10.390;2022-12-24T11:00:06;100603.63;;;6.19;89.22
76627;BME280;65519;53.230;10.390;2022-12-24T11:02:33;100601.88;;;6.41;88.48
76627;BME280;65519;53.230;10.390;2022-12-24T11:05:01;100604.63;;;6.58;89.31
76627;BME280;65519;53.230;10.390;2022-12-24T11:07:29;100608.56;;;6.67;88.89
76627;BME280;65519;53.230;10.390;2022-12-24T11:17:26;100601.56;;;7.21;87.92
76627;BME280;65519;53.230;10.390;2022-12-24T11:19:51;100607.94;;;7.32;87.78
76627;BME280;65519;53.230;10.390;2022-12-24T11:22:29;100608.03;;;7.20;87.91
76627;BME280;65519;53.230;10.390;2022-12-24T11:25:17;100609.09;;;7.19;88.37
76627;BME280;65519;53.230;10.390;2022-12-24T11:27:46;100623.09;;;7.11;87.75
76627;BME280;65519;53.230;10.390;2022-12-24T11:32:47;100609.00;;;7.14;88.70
76627;BME280;65519;53.230;10.390;2022-12-24T11:35:23;100609.09;;;7.19;88.09
76627;BME280;65519;53.230;10.390;2022-12-24T11:38:11;100612.22;;;7.28;88.12
76627;BME280;65519;53.230;10.390;2022-12-24T11:40:48;100616.56;;;7.29;88.21
76627;BME280;65519;53.230;10.390;2022-12-24T11:43:19;100619.53;;;7.27;88.58
76627;BME280;65519;53.230;10.390;2022-12-24T11:48:31;100609.59;;;7.16;89.03
76627;BME280;65519;53.230;10.390;2022-12-24T11:53:43;100622.06;;;7.34;89.01
76627;BME280;65519;53.230;10.390;2022-12-24T11:58:59;100619.88;;;7.53;88.70
76627;BME280;65519;53.230;10.390;2022-12-24T12:01:38;100619.69;;;7.59;89.77
76627;BME280;65519;53.230;10.390;2022-12-24T12:06:53;100616.69;;;7.78;89.73
76627;BME280;65519;53.230;10.390;2022-12-24T12:11:55;100618.13;;;7.85;88.91
76627;BME280;65519;53.230;10.390;2022-12-24T12:14:29;100618.25;;;7.95;88.66
76627;BME280;65519;53.230;10.390;2022-12-24T12:17:04;100613.88;;;8.16;88.73
76627;BME280;65519;53.230;10.390;2022-12-24T12:19:48;100613.13;;;8.21;88.23
76627;BME280;65519;53.230;10.390;2022-12-24T12:24:54;100627.94;;;8.35;87.68
76627;BME280;65519;53.230;10.390;2022-12-24T12:27:34;100620.63;;;8.35;88.16
76627;BME280;65519;53.230;10.390;2022-12-24T12:30:10;100629.59;;;8.36;87.98
76627;BME280;65519;53.230;10.390;2022-12-24T12:32:47;100642.34;;;8.35;88.03
76627;BME280;65519;53.230;10.390;2022-12-24T12:35:22;100631.50;;;8.35;87.24
76627;BME280;65519;53.230;10.390;2022-12-24T12:37:59;100632.03;;;8.32;86.70
76627;BME280;65519;53.230;10.390;2022-12-24T12:40:35;100635.03;;;8.63;86.74
76627;BME280;65519;53.230;10.390;2022-12-24T12:43:16;100626.72;;;8.74;86.20
76627;BME280;65519;53.230;10.390;2022-12-24T12:48:42;100634.81;;;9.01;85.15
76627;BME280;65519;53.230;10.390;2022-12-24T12:51:22;100656.47;;;9.23;84.46
76627;BME280;65519;53.230;10.390;2022-12-24T12:56:31;100656.97;;;9.20;84.22
76627;BME280;65519;53.230;10.390;2022-12-24T13:01:36;100663.47;;;9.14;83.83
76627;BME280;65519;53.230;10.390;2022-12-24T13:09:47;100686.34;;;8.86;84.88
76627;BME280;65519;53.230;10.390;2022-12-24T13:12:42;100690.50;;;8.94;85.38
76627;BME280;65519;53.230;10.390;2022-12-24T13:20:32;100687.69;;;8.84;85.74
76627;BME280;65519;53.230;10.390;2022-12-24T13:23:10;100691.22;;;8.84;85.61
76627;BME280;65519;53.230;10.390;2022-12-24T13:25:44;100693.06;;;8.78;85.67
76627;BME280;65519;53.230;10.390;2022-12-24T13:28:34;100694.66;;;8.74;85.92
76627;BME280;65519;53.230;10.390;2022-12-24T13:36:10;100705.84;;;8.51;85.69
76627;BME280;65519;53.230;10.390;2022-12-24T13:49:39;100724.22;;;8.44;86.94
76627;BME280;65519;53.230;10.390;2022-12-24T13:54:43;100739.25;;;8.52;86.10
76627;BME280;65519;53.230;10.390;2022-12-24T14:02:47;100739.38;;;8.40;86.26
76627;BME280;65519;53.230;10.390;2022-12-24T14:07:57;100731.91;;;8.30;87.48
76627;BME280;65519;53.230;10.390;2022-12-24T14:10:30;100736.66;;;8.18;87.05
76627;BME280;65519;53.230;10.390;2022-12-24T14:12:56;100735.25;;;8.16;87.97
76627;BME280;65519;53.230;10.390;2022-12-24T14:18:09;100748.19;;;8.09;87.93
76627;BME280;65519;53.230;10.390;2022-12-24T14:20:35;100738.91;;;8.04;87.75
76627;BME280;65519;53.230;10.390;2022-12-24T14:23:03;100746.22;;;8.04;88.35
76627;BME280;65519;53.230;10.390;2022-12-24T14:25:30;100739.09;;;7.98;88.12
76627;BME280;65519;53.230;10.390;2022-12-24T14:28:03;100744.75;;;7.96;88.00
76627;BME280;65519;53.230;10.390;2022-12-24T14:30:29;100751.25;;;7.95;88.13
76627;BME280;65519;53.230;10.390;2022-12-24T14:32:55;100747.25;;;7.98;87.60
76627;BME280;65519;53.230;10.390;2022-12-24T14:35:25;100760.41;;;7.89;88.11
76627;BME280;65519;53.230;10.390;2022-12-24T14:40:25;100762.22;;;7.84;88.10
76627;BME280;65519;53.230;10.390;2022-12-24T14:42:59;100772.34;;;7.72;88.16
76627;BME280;65519;53.230;10.390;2022-12-24T14:48:10;100784.50;;;7.69;88.54
76627;BME280;65519;53.230;10.390;2022-12-24T14:51:01;100772.78;;;7.63;88.20
76627;BME280;65519;53.230;10.390;2022-12-24T14:56:18;100793.00;;;7.56;87.91
76627;BME280;65519;53.230;10.390;2022-12-24T14:58:45;100800.22;;;7.50;87.92
76627;BME280;65519;53.230;10.390;2022-12-24T15:04:02;100807.78;;;7.48;88.79
76627;BME280;65519;53.230;10.390;2022-12-24T15:06:30;100815.09;;;7.48;88.09
76627;BME280;65519;53.230;10.390;2022-12-24T15:08:56;100821.09;;;7.50;88.37
76627;BME280;65519;53.230;10.390;2022-12-24T15:11:22;100817.81;;;7.48;88.94
76627;BME280;65519;53.230;10.390;2022-12-24T15:13:50;100818.31;;;7.45;88.39
76627;BME280;65519;53.230;10.390;2022-12-24T15:16:25;100824.41;;;7.52;88.68
76627;BME280;65519;53.230;10.390;2022-12-24T15:18:57;100821.78;;;7.57;89.63
76627;BME280;65519;53.230;10.390;2022-12-24T15:21:29;100822.09;;;7.60;88.97